sensor_id;sensor_type;location;lat;lon;timestamp;P1;durP1;ratioP1;P2;durP2;ratioP2
22650;SDS011;11492;42.646;23.400;2023-02-25T00:02:12;53.53;;;24.85;;
22650;SDS011;11492;42.646;23.400;2023-02-25T00:04:38;55.22;;;27.65;;
22650;SDS011;11492;42.646;23.400;2023-02-25T00:07:06;51.00;;;25.55;;
22650;SDS011;11492;42.646;23.400;2023-02-25T00:09:32;52.05;;;26.10;;
22650;SDS011;11492;42.646;23.400;2023-02-25T00:11:58;55.17;;;28.13;;
22650;SDS011;11492;42.646;23.400;2023-02-25T00:14:23;46.75;;;25.40;;
22650;SDS011;11492;42.646;23.400;2023-02-25T00:16:49;59.63;;;28.00;;
22650;SDS011;11492;42.646;23.400;2023-02-25T00:19:15;53.35;;;27.55;;
22650;SDS011;11492;42.646;23.400;2023-02-25T00:21:40;53.00;;;27.15;;
22650;SDS011;11492;42.646;23.400;2023-02-25T00:24:06;55.90;;;27.58;;
22650;SDS011;11492;42.646;23.400;2023-02-25T00:26:31;54.45;;;26.45;;
22650;SDS011;11492;42.646;23.400;2023-02-25T00:28:57;53.58;;;26.52;;
22650;SDS011;11492;42.646;23.400;2023-02-25T00:31:23;56.83;;;27.40;;
22650;SDS011;11492;42.646;23.400;2023-02-25T00:33:49;49.35;;;27.00;;
22650;SDS011;11492;42.646;23.400;2023-02-25T00:36:18;47.13;;;25.05;;
22650;SDS011;11492;42.646;23.400;2023-02-25T00:38:49;52.53;;;25.75;;
22650;SDS011;11492;42.646;23.400;2023-02-25T00:41:17;54.53;;;27.05;;
22650;SDS011;11492;42.646;23.400;2023-02-25T00:44:04;49.05;;;26.55;;
22650;SDS011;11492;42.646;23.400;2023-02-25T00:48:55;53.10;;;25.58;;
22650;SDS011;11492;42.646;23.400;2023-02-25T00:51:23;54.90;;;26.13;;
22650;SDS011;11492;42.646;23.400;2023-02-25T00:53:51;57.42;;;26.38;;
22650;SDS011;11492;42.646;23.400;2023-02-25T00:56:18;53.30;;;26.67;;
22650;SDS011;11492;42.646;23.400;2023-02-25T00:58:44;55.13;;;25.95;;
22650;SDS011;11492;42.646;23.400;2023-02-25T01:01:44;51.95;;;25.42;;
22650;SDS011;11492;42.646;23.400;2023-02-25T01:04:03;52.10;;;24.85;;
22650;SDS011;11492;42.646;23.400;2023-02-25T01:06:30;51.63;;;25.20;;
22650;SDS011;11492;42.646;23.400;2023-02-25T01:08:57;48.13;;;25.35;;
22650;SDS011;11492;42.646;23.400;2023-02-25T01:11:24;49.25;;;26.35;;
22650;SDS011;11492;42.646;23.400;2023-02-25T01:13:53;56.13;;;27.88;;
22650;SDS011;11492;42.646;23.400;2023-02-25T01:16:22;50.10;;;27.85;;
22650;SDS011;11492;42.646;23.400;2023-02-25T01:18:53;56.20;;;29.10;;
22650;SDS011;11492;42.646;23.400;2023-02-25T01:21:26;68.50;;;32.40;;
22650;SDS011;11492;42.646;23.400;2023-02-25T01:23:54;73.65;;;32.33;;
22650;SDS011;11492;42.646;23.400;2023-02-25T01:26:28;69.60;;;32.83;;
22650;SDS011;11492;42.646;23.400;2023-02-25T01:28:55;59.33;;;26.35;;
22650;SDS011;11492;42.646;23.400;2023-02-25T01:31:21;61.72;;;29.60;;
22650;SDS011;11492;42.646;23.400;2023-02-25T01:33:51;61.78;;;29.90;;
22650;SDS011;11492;42.646;23.400;2023-02-25T01:36:17;55.67;;;28.05;;
22650;SDS011;11492;42.646;23.400;2023-02-25T01:38:43;51.60;;;25.85;;
22650;SDS011;11492;42.646;23.400;2023-02-25T01:41:08;47.90;;;23.88;;
22650;SDS011;11492;42.646;23.400;2023-02-25T01:43:34;49.25;;;25.10;;
22650;SDS011;11492;42.646;23.400;2023-02-25T01:46:00;54.22;;;24.85;;
22650;SDS011;11492;42.646;23.400;2023-02-25T01:48:32;64.93;;;26.92;;
22650;SDS011;11492;42.646;23.400;2023-02-25T01:51:08;50.15;;;26.23;;
22650;SDS011;11492;42.646;23.400;2023-02-25T01:53:41;52.28;;;25.83;;
22650;SDS011;11492;42.646;23.400;2023-02-25T01:56:11;50.22;;;23.98;;
22650;SDS011;11492;42.646;23.400;2023-02-25T01:58:38;48.97;;;23.45;;
22650;SDS011;11492;42.646;23.400;2023-02-25T02:01:07;44.80;;;22.10;;
22650;SDS011;11492;42.646;23.400;2023-02-25T02:03:36;44.85;;;21.50;;
22650;SDS011;11492;42.646;23.400;2023-02-25T02:08:39;50.42;;;22.65;;
22650;SDS011;11492;42.646;23.400;2023-02-25T02:11:06;44.30;;;21.33;;
22650;SDS011;11492;42.646;23.400;2023-02-25T02:13:32;50.70;;;21.10;;
22650;SDS011;11492;42.646;23.400;2023-02-25T02:18:56;43.97;;;20.40;;
22650;SDS011;11492;42.646;23.400;2023-02-25T02:21:39;46.00;;;20.25;;
22650;SDS011;11492;42.646;23.400;2023-02-25T02:41:06;42.35;;;19.48;;
22650;SDS011;11492;42.646;23.400;2023-02-25T02:43:50;49.17;;;20.13;;
22650;SDS011;11492;42.646;23.400;2023-02-25T02:46:27;40.50;;;20.33;;
22650;SDS011;11492;42.646;23.400;2023-02-25T02:49:11;40.97;;;20.83;;
22650;SDS011;11492;42.646;23.400;2023-02-25T02:52:06;47.00;;;20.55;;
22650;SDS011;11492;42.646;23.400;2023-02-25T02:54:39;37.65;;;19.58;;
22650;SDS011;11492;42.646;23.400;2023-02-25T02:57:08;44.35;;;20.73;;
22650;SDS011;11492;42.646;23.400;2023-02-25T02:59:39;47.88;;;20.60;;
22650;SDS011;11492;42.646;23.400;2023-02-25T03:02:16;46.15;;;20.75;;
22650;SDS011;11492;42.646;23.400;2023-02-25T03:04:47;43.95;;;20.42;;
22650;SDS011;11492;42.646;23.400;2023-02-25T03:07:15;47.67;;;21.63;;
22650;SDS011;11492;42.646;23.400;2023-02-25T03:09:52;43.80;;;21.35;;
22650;SDS011;11492;42.646;23.400;2023-02-25T03:12:22;41.13;;;21.05;;
22650;SDS011;11492;42.646;23.400;2023-02-25T03:14:47;49.15;;;20.27;;
22650;SDS011;11492;42.646;23.400;2023-02-25T03:17:20;38.17;;;21.33;;
22650;SDS011;11492;42.646;23.400;2023-02-25T03:20:15;45.17;;;20.70;;
22650;SDS011;11492;42.646;23.400;2023-02-25T03:22:41;40.50;;;20.60;;
22650;SDS011;11492;42.646;23.400;2023-02-25T03:25:20;43.47;;;21.10;;
22650;SDS011;11492;42.646;23.400;2023-02-25T03:27:51;44.92;;;21.17;;
22650;SDS011;11492;42.646;23.400;2023-02-25T03:33:02;43.75;;;21.58;;
22650;SDS011;11492;42.646;23.400;2023-02-25T03:35:32;38.80;;;20.23;;
22650;SDS011;11492;42.646;23.400;2023-02-25T03:38:01;43.95;;;20.65;;
22650;SDS011;11492;42.646;23.400;2023-02-25T03:40:38;42.75;;;20.25;;
22650;SDS011;11492;42.646;23.400;2023-02-25T03:43:07;41.13;;;19.88;;
22650;SDS011;11492;42.646;23.400;2023-02-25T03:45:38;58.20;;;21.23;;
22650;SDS011;11492;42.646;23.400;2023-02-25T03:48:07;40.38;;;20.13;;
22650;SDS011;11492;42.646;23.400;2023-02-25T03:50:43;44.85;;;19.88;;
22650;SDS011;11492;42.646;23.400;2023-02-25T03:53:17;43.28;;;21.02;;
22650;SDS011;11492;42.646;23.400;2023-02-25T03:55:43;40.97;;;20.27;;
22650;SDS011;11492;42.646;23.400;2023-02-25T03:58:09;45.95;;;20.27;;
22650;SDS011;11492;42.646;23.400;2023-02-25T04:00:35;43.42;;;20.27;;
22650;SDS011;11492;42.646;23.400;2023-02-25T04:03:04;44.95;;;20.20;;
22650;SDS011;11492;42.646;23.400;2023-02-25T04:05:30;40.85;;;20.27;;
22650;SDS011;11492;42.646;23.400;2023-02-25T04:07:57;40.40;;;19.75;;
22650;SDS011;11492;42.646;23.400;2023-02-25T04:10:23;42.90;;;19.80;;
22650;SDS011;11492;42.646;23.400;2023-02-25T04:12:49;39.92;;;19.35;;
22650;SDS011;11492;42.646;23.400;2023-02-25T04:15:18;38.42;;;19.52;;
22650;SDS011;11492;42.646;23.400;2023-02-25T04:17:44;45.47;;;19.95;;
22650;SDS011;11492;42.646;23.400;2023-02-25T04:20:10;44.50;;;20.25;;
22650;SDS011;11492;42.646;23.400;2023-02-25T04:22:40;40.92;;;19.23;;
22650;SDS011;11492;42.646;23.400;2023-02-25T04:25:05;37.95;;;18.45;;
22650;SDS011;11492;42.646;23.400;2023-02-25T04:27:32;44.35;;;19.60;;
22650;SDS011;11492;42.646;23.400;2023-02-25T04:29:57;39.67;;;18.98;;
22650;SDS011;11492;42.646;23.400;2023-02-25T04:32:23;44.88;;;18.92;;
22650;SDS011;11492;42.646;23.400;2023-02-25T04:34:49;48.50;;;20.00;;
22650;SDS011;11492;42.646;23.400;2023-02-25T04:37:15;48.28;;;19.35;;
22650;SDS011;11492;42.646;23.400;2023-02-25T04:39:41;40.88;;;19.35;;
22650;SDS011;11492;42.646;23.400;2023-02-25T04:42:07;43.08;;;19.25;;
22650;SDS011;11492;42.646;23.400;2023-02-25T04:44:32;43.80;;;19.58;;
22650;SDS011;11492;42.646;23.400;2023-02-25T04:46:58;41.22;;;20.02;;
22650;SDS011;11492;42.646;23.400;2023-02-25T04:49:23;39.90;;;19.40;;
22650;SDS011;11492;42.646;23.400;2023-02-25T04:51:49;45.30;;;21.45;;
22650;SDS011;11492;42.646;23.400;2023-02-25T04:54:15;43.33;;;21.88;;
22650;SDS011;11492;42.646;23.400;2023-02-25T04:56:42;48.75;;;22.73;;
22650;SDS011;11492;42.646;23.400;2023-02-25T04:59:08;45.55;;;22.10;;
22650;SDS011;11492;42.646;23.400;2023-02-25T05:01:35;43.83;;;21.65;;
22650;SDS011;11492;42.646;23.400;2023-02-25T05:04:01;49.03;;;21.27;;
22650;SDS011;11492;42.646;23.400;2023-02-25T05:06:26;44.88;;;20.58;;
22650;SDS011;11492;42.646;23.400;2023-02-25T05:08:52;47.55;;;20.58;;
22650;SDS011;11492;42.646;23.400;2023-02-25T05:11:19;44.97;;;20.77;;
22650;SDS011;11492;42.646;23.400;2023-02-25T05:13:45;44.42;;;20.38;;
22650;SDS011;11492;42.646;23.400;2023-02-25T05:16:12;49.42;;;21.27;;
22650;SDS011;11492;42.646;23.400;2023-02-25T05:18:41;50.00;;;21.08;;
22650;SDS011;11492;42.646;23.400;2023-02-25T05:21:08;50.45;;;20.58;;
22650;SDS011;11492;42.646;23.400;2023-02-25T05:23:36;41.85;;;21.02;;
22650;SDS011;11492;42.646;23.400;2023-02-25T05:26:05;48.03;;;21.17;;
22650;SDS011;11492;42.646;23.400;2023-02-25T05:28:31;46.45;;;21.02;;
22650;SDS011;11492;42.646;23.400;2023-02-25T05:30:57;48.10;;;20.30;;
22650;SDS011;11492;42.646;23.400;2023-02-25T05:33:22;40.38;;;20.48;;
22650;SDS011;11492;42.646;23.400;2023-02-25T05:35:48;50.67;;;19.33;;
22650;SDS011;11492;42.646;23.400;2023-02-25T05:38:14;43.55;;;22.08;;
22650;SDS011;11492;42.646;23.400;2023-02-25T05:40:40;45.78;;;20.67;;
22650;SDS011;11492;42.646;23.400;2023-02-25T05:43:05;43.40;;;22.52;;
22650;SDS011;11492;42.646;23.400;2023-02-25T05:45:31;51.88;;;22.30;;
22650;SDS011;11492;42.646;23.400;2023-02-25T05:47:57;50.83;;;23.20;;
22650;SDS011;11492;42.646;23.400;2023-02-25T05:50:22;52.90;;;24.13;;
22650;SDS011;11492;42.646;23.400;2023-02-25T05:52:48;46.08;;;22.67;;
22650;SDS011;11492;42.646;23.400;2023-02-25T05:55:13;50.63;;;22.63;;
22650;SDS011;11492;42.646;23.400;2023-02-25T05:57:40;54.78;;;22.20;;
22650;SDS011;11492;42.646;23.400;2023-02-25T06:00:06;50.65;;;23.33;;
22650;SDS011;11492;42.646;23.400;2023-02-25T06:02:34;56.83;;;24.35;;
22650;SDS011;11492;42.646;23.400;2023-02-25T06:05:00;50.30;;;21.33;;
22650;SDS011;11492;42.646;23.400;2023-02-25T06:07:29;65.50;;;25.15;;
22650;SDS011;11492;42.646;23.400;2023-02-25T06:09:55;44.20;;;21.50;;
22650;SDS011;11492;42.646;23.400;2023-02-25T06:12:27;49.78;;;22.25;;
22650;SDS011;11492;42.646;23.400;2023-02-25T06:14:54;52.17;;;21.75;;
22650;SDS011;11492;42.646;23.400;2023-02-25T06:17:19;51.72;;;22.73;;
22650;SDS011;11492;42.646;23.400;2023-02-25T06:19:45;45.47;;;22.85;;
22650;SDS011;11492;42.646;23.400;2023-02-25T06:22:10;55.63;;;23.38;;
22650;SDS011;11492;42.646;23.400;2023-02-25T06:24:36;47.55;;;21.65;;
22650;SDS011;11492;42.646;23.400;2023-02-25T06:27:01;55.53;;;21.90;;
22650;SDS011;11492;42.646;23.400;2023-02-25T06:29:27;53.85;;;23.80;;
22650;SDS011;11492;42.646;23.400;2023-02-25T06:31:52;51.85;;;24.05;;
22650;SDS011;11492;42.646;23.400;2023-02-25T06:34:19;51.78;;;24.17;;
22650;SDS011;11492;42.646;23.400;2023-02-25T06:36:45;57.72;;;25.80;;
22650;SDS011;11492;42.646;23.400;2023-02-25T06:39:10;55.97;;;22.50;;
22650;SDS011;11492;42.646;23.400;2023-02-25T06:41:36;53.60;;;22.58;;
22650;SDS011;11492;42.646;23.400;2023-02-25T06:44:01;55.50;;;22.30;;
22650;SDS011;11492;42.646;23.400;2023-02-25T06:46:28;61.63;;;22.67;;
22650;SDS011;11492;42.646;23.400;2023-02-25T06:48:53;52.63;;;22.20;;
22650;SDS011;11492;42.646;23.400;2023-02-25T06:51:19;53.13;;;21.23;;
22650;SDS011;11492;42.646;23.400;2023-02-25T06:53:45;46.85;;;21.48;;
22650;SDS011;11492;42.646;23.400;2023-02-25T06:56:12;61.55;;;22.00;;
22650;SDS011;11492;42.646;23.400;2023-02-25T06:58:39;47.33;;;19.92;;
22650;SDS011;11492;42.646;23.400;2023-02-25T07:01:06;42.65;;;18.10;;
22650;SDS011;11492;42.646;23.400;2023-02-25T07:03:32;47.22;;;20.30;;
22650;SDS011;11492;42.646;23.400;2023-02-25T07:05:58;49.67;;;19.05;;
22650;SDS011;11492;42.646;23.400;2023-02-25T07:08:23;47.63;;;19.83;;
22650;SDS011;11492;42.646;23.400;2023-02-25T07:10:48;39.90;;;18.80;;
22650;SDS011;11492;42.646;23.400;2023-02-25T07:13:14;48.55;;;20.27;;
22650;SDS011;11492;42.646;23.400;2023-02-25T07:15:40;47.38;;;19.60;;
22650;SDS011;11492;42.646;23.400;2023-02-25T07:18:06;49.75;;;18.30;;
22650;SDS011;11492;42.646;23.400;2023-02-25T07:20:31;44.45;;;17.88;;
22650;SDS011;11492;42.646;23.400;2023-02-25T07:22:57;41.35;;;18.73;;
22650;SDS011;11492;42.646;23.400;2023-02-25T07:25:22;41.75;;;17.80;;
22650;SDS011;11492;42.646;23.400;2023-02-25T07:27:48;53.53;;;20.05;;
22650;SDS011;11492;42.646;23.400;2023-02-25T07:30:13;46.55;;;18.05;;
22650;SDS011;11492;42.646;23.400;2023-02-25T07:32:40;49.97;;;18.67;;
22650;SDS011;11492;42.646;23.400;2023-02-25T07:35:06;47.72;;;18.05;;
22650;SDS011;11492;42.646;23.400;2023-02-25T07:37:32;45.67;;;19.55;;
22650;SDS011;11492;42.646;23.400;2023-02-25T07:39:58;43.40;;;18.02;;
22650;SDS011;11492;42.646;23.400;2023-02-25T07:42:26;40.47;;;17.80;;
22650;SDS011;11492;42.646;23.400;2023-02-25T07:44:52;38.10;;;18.65;;
22650;SDS011;11492;42.646;23.400;2023-02-25T07:47:18;43.65;;;18.88;;
22650;SDS011;11492;42.646;23.400;2023-02-25T07:49:44;43.17;;;18.00;;
22650;SDS011;11492;42.646;23.400;2023-02-25T07:52:09;42.80;;;17.23;;
22650;SDS011;11492;42.646;23.400;2023-02-25T07:54:35;42.63;;;18.10;;
22650;SDS011;11492;42.646;23.400;2023-02-25T07:57:00;39.92;;;17.52;;
22650;SDS011;11492;42.646;23.400;2023-02-25T07:59:26;35.88;;;16.17;;
22650;SDS011;11492;42.646;23.400;2023-02-25T08:01:51;39.92;;;16.13;;
22650;SDS011;11492;42.646;23.400;2023-02-25T08:04:16;49.75;;;19.08;;
22650;SDS011;11492;42.646;23.400;2023-02-25T08:06:42;42.72;;;18.38;;
22650;SDS011;11492;42.646;23.400;2023-02-25T08:09:08;43.90;;;18.15;;
22650;SDS011;11492;42.646;23.400;2023-02-25T08:11:37;43.38;;;17.55;;
22650;SDS011;11492;42.646;23.400;2023-02-25T08:14:03;42.58;;;16.65;;
22650;SDS011;11492;42.646;23.400;2023-02-25T08:16:29;36.03;;;15.73;;
22650;SDS011;11492;42.646;23.400;2023-02-25T08:18:56;40.33;;;16.30;;
22650;SDS011;11492;42.646;23.400;2023-02-25T08:21:22;36.67;;;15.15;;
22650;SDS011;11492;42.646;23.400;2023-02-25T08:23:48;35.55;;;15.70;;
22650;SDS011;11492;42.646;23.400;2023-02-25T08:26:14;44.50;;;15.65;;
22650;SDS011;11492;42.646;23.400;2023-02-25T08:28:41;42.00;;;16.55;;
22650;SDS011;11492;42.646;23.400;2023-02-25T08:31:07;51.63;;;16.38;;
22650;SDS011;11492;42.646;23.400;2023-02-25T08:33:36;52.45;;;16.73;;
22650;SDS011;11492;42.646;23.400;2023-02-25T08:36:13;44.88;;;18.20;;
22650;SDS011;11492;42.646;23.400;2023-02-25T08:38:40;42.88;;;16.23;;
22650;SDS011;11492;42.646;23.400;2023-02-25T08:41:06;41.00;;;16.10;;
22650;SDS011;11492;42.646;23.400;2023-02-25T08:43:32;43.97;;;17.17;;
22650;SDS011;11492;42.646;23.400;2023-02-25T08:45:58;57.92;;;15.57;;
22650;SDS011;11492;42.646;23.400;2023-02-25T08:48:24;48.33;;;17.52;;
22650;SDS011;11492;42.646;23.400;2023-02-25T08:50:49;45.40;;;16.83;;
22650;SDS011;11492;42.646;23.400;2023-02-25T08:53:15;45.33;;;16.52;;
22650;SDS011;11492;42.646;23.400;2023-02-25T08:55:40;50.63;;;17.48;;
22650;SDS011;11492;42.646;23.400;2023-02-25T08:58:06;41.13;;;17.20;;
22650;SDS011;11492;42.646;23.400;2023-02-25T09:00:32;45.47;;;16.50;;
22650;SDS011;11492;42.646;23.400;2023-02-25T09:02:57;44.08;;;17.35;;
22650;SDS011;11492;42.646;23.400;2023-02-25T09:05:22;50.67;;;17.13;;
22650;SDS011;11492;42.646;23.400;2023-02-25T09:07:49;59.17;;;17.10;;
22650;SDS011;11492;42.646;23.400;2023-02-25T09:10:15;41.75;;;16.60;;
22650;SDS011;11492;42.646;23.400;2023-02-25T09:12:41;54.25;;;16.48;;
22650;SDS011;11492;42.646;23.400;2023-02-25T09:15:07;53.13;;;16.13;;
22650;SDS011;11492;42.646;23.400;2023-02-25T09:17:34;52.55;;;17.77;;
22650;SDS011;11492;42.646;23.400;2023-02-25T09:19:59;49.92;;;16.10;;
22650;SDS011;11492;42.646;23.400;2023-02-25T09:22:25;44.45;;;14.85;;
22650;SDS011;11492;42.646;23.400;2023-02-25T09:24:51;41.17;;;14.43;;
22650;SDS011;11492;42.646;23.400;2023-02-25T09:27:17;53.75;;;15.75;;
22650;SDS011;11492;42.646;23.400;2023-02-25T09:29:42;50.78;;;17.77;;
22650;SDS011;11492;42.646;23.400;2023-02-25T09:32:08;62.47;;;18.92;;
22650;SDS011;11492;42.646;23.400;2023-02-25T09:34:41;50.08;;;19.63;;
22650;SDS011;11492;42.646;23.400;2023-02-25T09:37:06;51.85;;;18.83;;
22650;SDS011;11492;42.646;23.400;2023-02-25T09:39:33;64.45;;;21.63;;
22650;SDS011;11492;42.646;23.400;2023-02-25T09:42:06;55.10;;;19.95;;
22650;SDS011;11492;42.646;23.400;2023-02-25T09:45:08;53.25;;;19.20;;
22650;SDS011;11492;42.646;23.400;2023-02-25T09:47:41;67.10;;;19.42;;
22650;SDS011;11492;42.646;23.400;2023-02-25T09:50:20;56.42;;;20.38;;
22650;SDS011;11492;42.646;23.400;2023-02-25T09:55:22;61.85;;;20.13;;
22650;SDS011;11492;42.646;23.400;2023-02-25T09:57:56;57.83;;;21.05;;
22650;SDS011;11492;42.646;23.400;2023-02-25T10:00:29;47.83;;;18.85;;
22650;SDS011;11492;42.646;23.400;2023-02-25T10:05:48;70.45;;;17.50;;
22650;SDS011;11492;42.646;23.400;2023-02-25T10:10:59;42.67;;;15.07;;
22650;SDS011;11492;42.646;23.400;2023-02-25T10:13:53;57.70;;;17.33;;
22650;SDS011;11492;42.646;23.400;2023-02-25T10:24:40;56.43;;;17.13;;
22650;SDS011;11492;42.646;23.400;2023-02-25T10:27:18;51.65;;;15.32;;
22650;SDS011;11492;42.646;23.400;2023-02-25T10:29:52;50.08;;;14.90;;
22650;SDS011;11492;42.646;23.400;2023-02-25T10:32:24;57.80;;;16.13;;
22650;SDS011;11492;42.646;23.400;2023-02-25T10:34:59;43.05;;;15.55;;
22650;SDS011;11492;42.646;23.400;2023-02-25T10:37:27;51.20;;;15.63;;
22650;SDS011;11492;42.646;23.400;2023-02-25T10:39:58;52.70;;;15.30;;
22650;SDS011;11492;42.646;23.400;2023-02-25T10:42:25;50.05;;;15.60;;
22650;SDS011;11492;42.646;23.400;2023-02-25T10:44:51;57.45;;;15.77;;
22650;SDS011;11492;42.646;23.400;2023-02-25T10:47:20;60.55;;;15.82;;
22650;SDS011;11492;42.646;23.400;2023-02-25T10:50:27;64.60;;;15.73;;
22650;SDS011;11492;42.646;23.400;2023-02-25T10:55:25;46.35;;;12.38;;
22650;SDS011;11492;42.646;23.400;2023-02-25T10:58:40;56.80;;;12.88;;
22650;SDS011;11492;42.646;23.400;2023-02-25T11:03:53;54.10;;;13.82;;
22650;SDS011;11492;42.646;23.400;2023-02-25T11:06:27;57.38;;;17.27;;
22650;SDS011;11492;42.646;23.400;2023-02-25T11:08:59;53.00;;;12.10;;
22650;SDS011;11492;42.646;23.400;2023-02-25T11:11:30;40.88;;;11.70;;
22650;SDS011;11492;42.646;23.400;2023-02-25T11:14:00;50.95;;;12.02;;
22650;SDS011;11492;42.646;23.400;2023-02-25T11:16:35;55.22;;;11.73;;
22650;SDS011;11492;42.646;23.400;2023-02-25T11:21:39;58.25;;;10.55;;
22650;SDS011;11492;42.646;23.400;2023-02-25T11:24:09;42.15;;;10.70;;
22650;SDS011;11492;42.646;23.400;2023-02-25T11:26:40;46.53;;;10.88;;
22650;SDS011;11492;42.646;23.400;2023-02-25T11:29:19;63.55;;;10.73;;
22650;SDS011;11492;42.646;23.400;2023-02-25T11:31:58;35.80;;;10.05;;
22650;SDS011;11492;42.646;23.400;2023-02-25T11:37:24;56.67;;;10.20;;
22650;SDS011;11492;42.646;23.400;2023-02-25T11:40:02;57.38;;;8.68;;
22650;SDS011;11492;42.646;23.400;2023-02-25T11:42:43;48.95;;;9.15;;
22650;SDS011;11492;42.646;23.400;2023-02-25T11:48:27;42.38;;;9.02;;
22650;SDS011;11492;42.646;23.400;2023-02-25T11:51:16;37.50;;;9.27;;
22650;SDS011;11492;42.646;23.400;2023-02-25T11:56:41;47.28;;;9.55;;
22650;SDS011;11492;42.646;23.400;2023-02-25T12:34:12;43.95;;;8.18;;
22650;SDS011;11492;42.646;23.400;2023-02-25T12:40:25;55.20;;;8.43;;
22650;SDS011;11492;42.646;23.400;2023-02-25T12:43:05;39.72;;;7.75;;
22650;SDS011;11492;42.646;23.400;2023-02-25T12:45:43;45.45;;;8.55;;
22650;SDS011;11492;42.646;23.400;2023-02-25T13:02:11;41.00;;;7.38;;
22650;SDS011;11492;42.646;23.400;2023-02-25T13:04:57;36.65;;;7.28;;
22650;SDS011;11492;42.646;23.400;2023-02-25T13:07:55;47.67;;;7.07;;
22650;SDS011;11492;42.646;23.400;2023-02-25T13:10:38;43.38;;;7.20;;
22650;SDS011;11492;42.646;23.400;2023-02-25T13:25:18;40.55;;;7.18;;
22650;SDS011;11492;42.646;23.400;2023-02-25T13:36:01;35.67;;;6.30;;
22650;SDS011;11492;42.646;23.400;2023-02-25T13:38:36;47.63;;;7.63;;
22650;SDS011;11492;42.646;23.400;2023-02-25T13:52:27;32.70;;;7.10;;
22650;SDS011;11492;42.646;23.400;2023-02-25T14:06:54;45.42;;;7.60;;
22650;SDS011;11492;42.646;23.400;2023-02-25T14:14:52;33.80;;;6.57;;
22650;SDS011;11492;42.646;23.400;2023-02-25T14:20:26;36.22;;;7.25;;
22650;SDS011;11492;42.646;23.400;2023-02-25T14:22:55;45.78;;;6.75;;
22650;SDS011;11492;42.646;23.400;2023-02-25T14:31:25;37.33;;;7.80;;
22650;SDS011;11492;42.646;23.400;2023-02-25T14:39:38;31.27;;;6.50;;
22650;SDS011;11492;42.646;23.400;2023-02-25T14:45:01;42.60;;;7.63;;
22650;SDS011;11492;42.646;23.400;2023-02-25T14:59:09;40.83;;;6.78;;
22650;SDS011;11492;42.646;23.400;2023-02-25T15:01:42;35.08;;;6.05;;
22650;SDS011;11492;42.646;23.400;2023-02-25T15:07:22;36.20;;;6.13;;
22650;SDS011;11492;42.646;23.400;2023-02-25T15:12:55;34.67;;;6.38;;
22650;SDS011;11492;42.646;23.400;2023-02-25T15:20:52;34.60;;;7.05;;
22650;SDS011;11492;42.646;23.400;2023-02-25T15:23:18;39.58;;;7.43;;
22650;SDS011;11492;42.646;23.400;2023-02-25T15:28:43;39.67;;;7.03;;
22650;SDS011;11492;42.646;23.400;2023-02-25T15:33:52;32.05;;;6.10;;
22650;SDS011;11492;42.646;23.400;2023-02-25T15:36:41;30.38;;;6.80;;
22650;SDS011;11492;42.646;23.400;2023-02-25T15:39:12;30.67;;;6.45;;
22650;SDS011;11492;42.646;23.400;2023-02-25T15:42:07;35.60;;;6.25;;
22650;SDS011;11492;42.646;23.400;2023-02-25T15:44:36;40.15;;;7.60;;
22650;SDS011;11492;42.646;23.400;2023-02-25T15:47:14;37.20;;;6.20;;
22650;SDS011;11492;42.646;23.400;2023-02-25T15:49:52;43.25;;;7.47;;
22650;SDS011;11492;42.646;23.400;2023-02-25T15:55:39;37.53;;;6.97;;
22650;SDS011;11492;42.646;23.400;2023-02-25T16:08:30;30.42;;;6.35;;
22650;SDS011;11492;42.646;23.400;2023-02-25T16:11:02;34.20;;;7.32;;
22650;SDS011;11492;42.646;23.400;2023-02-25T16:13:32;30.42;;;7.13;;
22650;SDS011;11492;42.646;23.400;2023-02-25T16:15:59;28.45;;;6.85;;
22650;SDS011;11492;42.646;23.400;2023-02-25T16:21:05;50.58;;;6.68;;
22650;SDS011;11492;42.646;23.400;2023-02-25T16:23:37;39.13;;;7.60;;
22650;SDS011;11492;42.646;23.400;2023-02-25T16:34:16;36.78;;;7.13;;
22650;SDS011;11492;42.646;23.400;2023-02-25T16:37:04;34.88;;;6.68;;
22650;SDS011;11492;42.646;23.400;2023-02-25T16:39:33;31.70;;;7.28;;
22650;SDS011;11492;42.646;23.400;2023-02-25T16:42:18;43.35;;;8.85;;
22650;SDS011;11492;42.646;23.400;2023-02-25T16:44:53;31.92;;;6.40;;
22650;SDS011;11492;42.646;23.400;2023-02-25T16:47:23;30.13;;;6.45;;
22650;SDS011;11492;42.646;23.400;2023-02-25T16:49:50;28.27;;;5.45;;
22650;SDS011;11492;42.646;23.400;2023-02-25T16:52:27;40.92;;;7.10;;
22650;SDS011;11492;42.646;23.400;2023-02-25T16:55:03;40.60;;;6.97;;
22650;SDS011;11492;42.646;23.400;2023-02-25T16:57:34;34.00;;;6.68;;
22650;SDS011;11492;42.646;23.400;2023-02-25T17:00:17;36.08;;;7.07;;
22650;SDS011;11492;42.646;23.400;2023-02-25T17:02:45;34.95;;;6.57;;
22650;SDS011;11492;42.646;23.400;2023-02-25T17:08:22;35.88;;;5.93;;
22650;SDS011;11492;42.646;23.400;2023-02-25T17:10:49;41.50;;;6.10;;
22650;SDS011;11492;42.646;23.400;2023-02-25T17:13:22;39.65;;;6.82;;
22650;SDS011;11492;42.646;23.400;2023-02-25T17:15:48;36.67;;;6.47;;
22650;SDS011;11492;42.646;23.400;2023-02-25T17:18:23;47.75;;;7.63;;
22650;SDS011;11492;42.646;23.400;2023-02-25T17:20:58;40.47;;;7.43;;
22650;SDS011;11492;42.646;23.400;2023-02-25T17:23:40;49.85;;;8.10;;
22650;SDS011;11492;42.646;23.400;2023-02-25T17:26:10;39.17;;;8.15;;
22650;SDS011;11492;42.646;23.400;2023-02-25T17:28:38;25.98;;;6.10;;
22650;SDS011;11492;42.646;23.400;2023-02-25T17:31:08;30.73;;;6.82;;
22650;SDS011;11492;42.646;23.400;2023-02-25T17:33:49;30.38;;;6.78;;
22650;SDS011;11492;42.646;23.400;2023-02-25T17:36:18;31.00;;;6.65;;
22650;SDS011;11492;42.646;23.400;2023-02-25T17:38:49;30.85;;;6.75;;
22650;SDS011;11492;42.646;23.400;2023-02-25T17:41:23;35.28;;;6.10;;
22650;SDS011;11492;42.646;23.400;2023-02-25T17:43:50;30.25;;;6.97;;
22650;SDS011;11492;42.646;23.400;2023-02-25T17:48:55;25.63;;;6.47;;
22650;SDS011;11492;42.646;23.400;2023-02-25T17:51:27;37.50;;;6.33;;
22650;SDS011;11492;42.646;23.400;2023-02-25T17:53:57;34.63;;;6.55;;
22650;SDS011;11492;42.646;23.400;2023-02-25T17:56:36;33.00;;;6.45;;
22650;SDS011;11492;42.646;23.400;2023-02-25T17:59:03;29.92;;;6.38;;
22650;SDS011;11492;42.646;23.400;2023-02-25T18:01:45;46.72;;;6.95;;
22650;SDS011;11492;42.646;23.400;2023-02-25T18:04:20;32.30;;;7.30;;
22650;SDS011;11492;42.646;23.400;2023-02-25T18:09:53;31.48;;;6.63;;
22650;SDS011;11492;42.646;23.400;2023-02-25T18:14:54;30.52;;;6.32;;
22650;SDS011;11492;42.646;23.400;2023-02-25T18:17:41;41.22;;;6.97;;
22650;SDS011;11492;42.646;23.400;2023-02-25T18:27:57;36.33;;;7.35;;
22650;SDS011;11492;42.646;23.400;2023-02-25T18:30:23;34.90;;;6.70;;
22650;SDS011;11492;42.646;23.400;2023-02-25T18:32:50;37.45;;;7.05;;
22650;SDS011;11492;42.646;23.400;2023-02-25T18:35:21;33.97;;;6.57;;
22650;SDS011;11492;42.646;23.400;2023-02-25T18:37:48;32.78;;;7.45;;
22650;SDS011;11492;42.646;23.400;2023-02-25T18:42:50;33.75;;;6.93;;